Time;durP1;ratioP1;P1;durP2;ratioP2;P2;SDS_P1;SDS_P2;PMS_P1;PMS_P2;Temp;Humidity;BMP_temperature;BMP_pressure;BME280_temperature;BME280_humidity;BME280_pressure;Samples;Min_cycle;Max_cycle;Signal;HPM_P1;HPM_P2
2022/04/14 00:01:09;;;;;;;18.12;8.40;;;;;;;8.71;41.91;101245.73;1649543;85;20936;-78
2022/04/14 00:03:54;;;;;;;14.18;8.60;;;;;;;8.73;41.96;101240.58;1649226;85;21630;-78
2022/04/14 00:06:38;;;;;;;18.40;8.65;;;;;;;8.74;42.06;101241.02;1626283;85;21044;-78
2022/04/14 00:09:22;;;;;;;11.20;8.68;;;;;;;8.74;42.08;101241.88;1625837;87;21106;-78
2022/04/14 00:12:08;;;;;;;18.15;7.92;;;;;;;8.72;42.16;101239.72;1621367;87;21060;-78
2022/04/14 00:14:52;;;;;;;11.88;8.88;;;;;;;8.71;42.18;101231.55;1630230;86;21135;-78
2022/04/14 00:17:37;;;;;;;14.58;8.73;;;;;;;8.70;42.25;101236.28;1632376;87;21480;-78
2022/04/14 00:20:23;;;;;;;14.05;8.75;;;;;;;8.68;42.32;101229.41;1649709;85;21111;-78
2022/04/14 00:23:08;;;;;;;12.55;8.45;;;;;;;8.68;42.38;101230.69;1623732;86;21093;-78
2022/04/14 00:25:53;;;;;;;12.18;8.25;;;;;;;8.65;42.43;101220.37;1622385;88;21128;-78
2022/04/14 00:28:37;;;;;;;20.23;9.45;;;;;;;8.62;42.48;101223.37;1648195;86;21054;-78
2022/04/14 00:31:22;;;;;;;13.10;8.45;;;;;;;8.62;42.57;101219.94;1622544;84;21056;-79
2022/04/14 00:34:07;;;;;;;13.90;8.53;;;;;;;8.60;42.61;101219.94;1621937;88;21095;-78
2022/04/14 00:36:51;;;;;;;15.05;8.53;;;;;;;8.59;42.67;101219.50;1623338;87;21462;-78
2022/04/14 00:39:36;;;;;;;12.13;8.80;;;;;;;8.58;42.75;101212.63;1622028;87;21486;-79
2022/04/14 00:42:20;;;;;;;11.45;8.05;;;;;;;8.57;42.82;101216.06;1622052;88;21068;-79
2022/04/14 00:45:06;;;;;;;13.80;8.28;;;;;;;8.54;42.85;101208.75;1644628;87;21096;-79
2022/04/14 00:47:54;;;;;;;11.73;8.28;;;;;;;8.53;42.94;101216.05;1627951;85;21519;-78
2022/04/14 00:50:38;;;;;;;12.73;8.10;;;;;;;8.51;43.02;101219.92;1637295;85;21059;-78
2022/04/14 00:53:24;;;;;;;15.38;9.33;;;;;;;8.51;43.07;101214.77;1648515;85;21433;-78
2022/04/14 00:56:08;;;;;;;14.63;9.88;;;;;;;8.52;43.10;101211.33;1643336;85;21513;-78
2022/04/14 00:58:53;;;;;;;15.43;8.73;;;;;;;8.52;43.12;101209.17;1623192;86;21013;-78
2022/04/14 01:01:37;;;;;;;12.30;8.55;;;;;;;8.51;43.18;101210.89;1638904;85;21060;-78
2022/04/14 01:04:22;;;;;;;19.07;8.68;;;;;;;8.52;43.26;101208.75;1638601;85;21093;-78
2022/04/14 01:07:08;;;;;;;15.93;9.25;;;;;;;8.52;43.30;101206.60;1638140;85;21037;-78
2022/04/14 01:09:54;;;;;;;13.22;8.43;;;;;;;8.48;43.40;101204.45;1683987;84;21335;-78
2022/04/14 01:12:38;;;;;;;17.70;9.33;;;;;;;8.46;43.44;101206.16;1642818;84;21112;-78
2022/04/14 01:15:23;;;;;;;16.40;9.38;;;;;;;8.45;43.50;101199.71;1623885;85;21469;-78
2022/04/14 01:18:08;;;;;;;13.90;9.15;;;;;;;8.45;43.59;101191.98;1648447;85;21107;-78
2022/04/14 01:20:53;;;;;;;12.93;9.30;;;;;;;8.45;43.61;101189.41;1624796;85;21072;-78
2022/04/14 01:23:44;;;;;;;14.38;9.05;;;;;;;8.46;43.70;101190.70;1636772;85;21505;-78
2022/04/14 01:26:29;;;;;;;15.38;10.25;;;;;;;8.47;43.73;101183.83;1625118;86;20987;-78
2022/04/14 01:29:22;;;;;;;16.52;9.80;;;;;;;8.46;43.77;101179.09;1627634;85;20957;-78
2022/04/14 01:32:08;;;;;;;20.32;9.70;;;;;;;8.46;43.84;101184.25;1648129;87;20960;-78
2022/04/14 01:34:52;;;;;;;17.77;9.60;;;;;;;8.49;43.91;101180.82;1649686;86;20966;-78
2022/04/14 01:37:37;;;;;;;16.55;10.15;;;;;;;8.52;43.94;101182.11;1648540;86;21410;-78
2022/04/14 01:40:21;;;;;;;21.02;10.65;;;;;;;8.54;43.98;101179.97;1649617;85;21549;-78
2022/04/14 01:43:06;;;;;;;16.23;10.20;;;;;;;8.55;44.01;101175.67;1640662;86;21467;-78
2022/04/14 01:45:51;;;;;;;18.25;10.38;;;;;;;8.55;44.08;101175.25;1628759;87;20906;-78
2022/04/14 01:48:38;;;;;;;22.05;10.98;;;;;;;8.55;44.11;101176.97;1647967;86;20962;-78
2022/04/14 01:51:22;;;;;;;15.83;9.78;;;;;;;8.56;44.13;101170.95;1649177;85;20980;-78
2022/04/14 01:54:07;;;;;;;18.02;10.35;;;;;;;8.56;44.23;101175.68;1631235;85;21112;-78
2022/04/14 01:56:51;;;;;;;16.55;10.43;;;;;;;8.58;44.30;101176.97;1641954;85;21115;-78
2022/04/14 01:59:36;;;;;;;14.87;9.88;;;;;;;8.58;44.33;101173.96;1647750;86;21511;-78
2022/04/14 02:02:20;;;;;;;21.20;11.08;;;;;;;8.57;44.42;101177.40;1643372;85;21096;-78
2022/04/14 02:05:06;;;;;;;19.73;11.15;;;;;;;8.57;44.48;101178.69;1632694;87;21489;-78
2022/04/14 02:07:51;;;;;;;18.10;10.38;;;;;;;8.59;44.50;101178.69;1646881;85;21057;-78
2022/04/14 02:10:36;;;;;;;20.05;10.70;;;;;;;8.61;44.56;101175.69;1643708;85;21056;-79
2022/04/14 02:13:20;;;;;;;16.50;10.43;;;;;;;8.61;44.57;101170.09;1647862;86;21051;-78
2022/04/14 02:16:06;;;;;;;17.62;10.25;;;;;;;8.61;44.63;101175.25;1636803;85;21595;-78
2022/04/14 02:18:50;;;;;;;19.17;11.03;;;;;;;8.61;44.70;101169.24;1647859;86;21567;-78
2022/04/14 02:21:34;;;;;;;18.82;10.78;;;;;;;8.61;44.75;101162.37;1636991;85;21060;-78
2022/04/14 02:24:19;;;;;;;17.48;10.60;;;;;;;8.60;44.72;101167.52;1627209;87;21096;-78
2022/04/14 02:27:04;;;;;;;17.95;10.63;;;;;;;8.55;44.84;101173.09;1621705;86;21101;-78
2022/04/14 02:29:48;;;;;;;21.00;10.93;;;;;;;8.54;44.89;101169.66;1629818;87;21080;-78
2022/04/14 02:32:33;;;;;;;17.12;10.53;;;;;;;8.54;44.94;101162.36;1621710;88;22397;-78
2022/04/14 02:35:17;;;;;;;20.60;11.28;;;;;;;8.56;44.95;101163.22;1621356;88;21071;-78
2022/04/14 02:38:02;;;;;;;17.48;10.72;;;;;;;8.56;44.97;101174.81;1623198;87;21068;-78
2022/04/14 02:40:46;;;;;;;18.25;11.03;;;;;;;8.56;45.04;101168.38;1635530;85;21054;-78
2022/04/14 02:43:31;;;;;;;17.45;11.05;;;;;;;8.56;45.07;101168.38;1631238;85;21112;-78
2022/04/14 02:46:16;;;;;;;18.37;11.63;;;;;;;8.55;45.16;101167.94;1631808;87;21112;-79
2022/04/14 02:49:01;;;;;;;22.67;11.12;;;;;;;8.53;45.21;101164.50;1635108;86;22243;-79
2022/04/14 02:51:45;;;;;;;23.15;11.28;;;;;;;8.53;45.26;101164.50;1627700;87;21511;-79
2022/04/14 02:54:35;;;;;;;18.15;11.18;;;;;;;8.53;45.29;101160.20;1639965;85;21096;-79
2022/04/14 02:57:16;;;;;;;;;;;;;;;8.53;45.35;101147.32;1642247;85;21053;-79
2022/04/14 03:00:05;;;;;;;21.10;10.75;;;;;;;8.54;45.77;101158.06;1646542;84;20186;-79
2022/04/14 03:02:49;;;;;;;20.68;12.50;;;;;;;8.54;45.42;101157.20;1633251;87;21100;-77
2022/04/14 03:05:34;;;;;;;17.07;11.03;;;;;;;8.53;45.49;101153.77;1637097;85;21549;-77
2022/04/14 03:08:19;;;;;;;16.07;10.72;;;;;;;8.54;45.50;101149.04;1647930;85;21148;-77
2022/04/14 03:11:04;;;;;;;21.17;12.60;;;;;;;8.54;45.57;101154.20;1646066;85;20954;-78
2022/04/14 03:13:48;;;;;;;17.32;11.45;;;;;;;8.56;45.60;101155.48;1622995;87;20925;-78
2022/04/14 03:16:32;;;;;;;17.85;11.40;;;;;;;8.58;45.65;101158.92;1630054;85;20969;-78
2022/04/14 03:19:17;;;;;;;18.92;12.07;;;;;;;8.57;45.68;101147.75;1622894;88;21029;-79
2022/04/14 03:22:01;;;;;;;24.57;12.37;;;;;;;8.60;45.74;101155.48;1641349;85;21059;-79
2022/04/14 03:24:46;;;;;;;19.73;11.78;;;;;;;8.60;45.76;101152.91;1645131;85;21021;-79
2022/04/14 03:27:30;;;;;;;20.35;12.20;;;;;;;8.61;45.84;101144.32;1623427;86;21105;-79
2022/04/14 03:30:15;;;;;;;22.85;12.60;;;;;;;8.61;45.86;101140.45;1630464;87;21069;-79
2022/04/14 03:33:00;;;;;;;22.58;12.78;;;;;;;8.61;45.88;101144.32;1637338;85;21049;-79
2022/04/14 03:35:44;;;;;;;22.30;12.68;;;;;;;8.58;45.89;101145.61;1648843;85;21011;-79
2022/04/14 03:38:29;;;;;;;20.85;12.33;;;;;;;8.55;45.95;101147.32;1628607;85;21100;-79
2022/04/14 03:41:13;;;;;;;18.30;12.07;;;;;;;8.53;46.02;101147.32;1648052;85;21564;-79
2022/04/14 03:43:58;;;;;;;17.77;11.25;;;;;;;8.54;46.03;101145.61;1643282;85;21085;-79
2022/04/14 03:46:42;;;;;;;18.87;12.07;;;;;;;8.53;46.07;101144.75;1636653;85;21103;-79
2022/04/14 03:49:26;;;;;;;19.87;12.20;;;;;;;8.52;46.13;101142.16;1636587;86;21628;-79
2022/04/14 03:52:11;;;;;;;19.40;11.85;;;;;;;8.51;46.13;101143.02;1642259;85;21044;-79
2022/04/14 03:54:56;;;;;;;23.90;12.35;;;;;;;8.48;46.15;101142.59;1644554;85;21128;-79
2022/04/14 03:57:40;;;;;;;20.00;12.73;;;;;;;8.46;46.21;101148.17;1633569;87;21032;-79
2022/04/14 04:00:26;;;;;;;18.10;12.30;;;;;;;8.46;46.29;101146.88;1645788;87;21563;-79
2022/04/14 04:03:13;;;;;;;19.57;12.45;;;;;;;8.46;46.31;101144.73;1648056;86;21191;-78
2022/04/14 04:05:57;;;;;;;22.85;13.30;;;;;;;8.46;46.39;101140.44;1629466;85;21104;-78
2022/04/14 04:08:41;;;;;;;25.40;13.38;;;;;;;8.45;46.38;101144.30;1621658;88;21029;-78
2022/04/14 04:11:26;;;;;;;22.22;13.30;;;;;;;8.42;46.42;101145.59;1632715;85;21060;-78
2022/04/14 04:14:10;;;;;;;18.77;12.82;;;;;;;8.39;46.46;101149.02;1625388;87;21152;-79
2022/04/14 04:16:55;;;;;;;27.35;13.08;;;;;;;8.38;46.51;101152.45;1646254;86;21069;-79
2022/04/14 04:19:40;;;;;;;18.98;12.90;;;;;;;8.37;46.53;101156.31;1648284;85;21118;-79
2022/04/14 04:22:25;;;;;;;23.67;13.35;;;;;;;8.37;46.66;101149.45;1636796;87;21064;-80
2022/04/14 04:25:10;;;;;;;22.32;12.90;;;;;;;8.39;46.68;101154.60;1639806;86;21037;-80
2022/04/14 04:27:54;;;;;;;19.17;12.80;;;;;;;8.38;46.69;101151.16;1648163;86;21077;-79
2022/04/14 04:30:40;;;;;;;22.50;11.53;;;;;;;8.38;46.78;101151.16;1647960;85;21124;-79
2022/04/14 04:33:25;;;;;;;20.97;13.43;;;;;;;8.38;46.83;101151.16;1645072;85;21426;-79
2022/04/14 04:36:11;;;;;;;21.95;13.32;;;;;;;8.40;46.89;101140.86;1645463;85;21109;-79
2022/04/14 04:38:58;;;;;;;20.40;12.55;;;;;;;8.42;46.92;101137.43;1660860;85;21099;-79
2022/04/14 04:41:42;;;;;;;;;;;;;;;8.46;47.05;101135.28;1639527;84;21064;-78
2022/04/14 04:44:27;;;;;;;21.30;11.88;;;;;;;8.52;47.59;101137.01;1619728;88;20198;-79
2022/04/14 04:47:11;;;;;;;28.90;14.30;;;;;;;8.56;47.16;101136.16;1641717;85;21124;-79
2022/04/14 04:49:56;;;;;;;26.27;13.80;;;;;;;8.60;47.21;101147.76;1641722;85;21077;-79
2022/04/14 04:52:40;;;;;;;22.98;13.98;;;;;;;8.67;47.28;101139.59;1640284;85;21558;-79
2022/04/14 04:55:25;;;;;;;26.70;14.03;;;;;;;8.75;47.32;101139.60;1648612;85;21092;-79
2022/04/14 04:58:10;;;;;;;22.17;13.75;;;;;;;8.82;47.33;101141.32;1659370;85;21110;-79
2022/04/14 05:00:54;;;;;;;24.95;15.75;;;;;;;8.88;47.36;101140.86;1645863;85;21096;-79
2022/04/14 05:03:40;;;;;;;24.00;14.58;;;;;;;8.96;47.39;101144.72;1646447;84;21829;-79
2022/04/14 05:06:24;;;;;;;27.70;15.88;;;;;;;9.03;47.44;101150.30;1659569;85;21120;-79
2022/04/14 05:09:09;;;;;;;25.75;14.55;;;;;;;9.12;47.49;101148.14;1677106;85;21054;-79
2022/04/14 05:11:53;;;;;;;26.12;16.50;;;;;;;9.23;47.56;101147.70;1638258;85;21560;-79
2022/04/14 05:14:38;;;;;;;27.25;16.62;;;;;;;9.34;47.61;101141.22;1640304;85;21162;-79
2022/04/14 05:17:22;;;;;;;24.32;14.58;;;;;;;9.45;47.64;101144.61;1663945;85;21136;-78
2022/04/14 05:20:09;;;;;;;27.05;15.65;;;;;;;9.52;47.67;101138.13;1669128;84;21073;-79
2022/04/14 05:22:53;;;;;;;22.95;15.35;;;;;;;9.63;47.72;101135.08;1655698;85;21528;-78
2022/04/14 05:25:41;;;;;;;26.17;16.75;;;;;;;9.73;47.78;101135.90;1663257;85;20918;-79
2022/04/14 05:28:26;;;;;;;24.37;15.63;;;;;;;9.83;47.77;101127.69;1660344;85;21546;-78
2022/04/14 05:31:11;;;;;;;25.15;15.90;;;;;;;9.92;47.86;101123.73;1663087;85;21089;-79
2022/04/14 05:33:55;;;;;;;26.25;15.32;;;;;;;10.02;47.89;101124.11;1647507;85;21061;-80
2022/04/14 05:36:40;;;;;;;27.22;17.37;;;;;;;10.12;47.94;101118.02;1642409;85;21684;-79
2022/04/14 05:39:25;;;;;;;24.30;15.75;;;;;;;10.24;48.03;101117.98;1633515;85;21097;-78
2022/04/14 05:42:09;;;;;;;25.17;16.05;;;;;;;10.41;48.10;101117.84;1641478;85;21096;-78
2022/04/14 05:44:54;;;;;;;26.57;16.10;;;;;;;10.57;48.14;101122.46;1647558;85;21089;-78
2022/04/14 05:50:09;;;;;;;26.90;17.85;;;;;;;10.87;48.25;101120.05;1832694;77;23143;-79
2022/04/14 05:52:55;;;;;;;23.00;16.17;;;;;;;10.99;48.34;101121.20;1792125;77;21058;-79
2022/04/14 05:55:41;;;;;;;23.87;16.10;;;;;;;11.20;48.36;101118.41;1765729;80;20906;-78
2022/04/14 05:58:26;;;;;;;29.30;16.25;;;;;;;11.35;48.35;101116.09;1778943;80;21049;-79
2022/04/14 06:01:10;;;;;;;29.10;16.35;;;;;;;11.49;48.37;101118.50;1763914;78;20997;-79
2022/04/14 06:03:54;;;;;;;28.80;16.45;;;;;;;11.63;48.39;101115.30;1761161;78;21013;-79
2022/04/14 06:06:40;;;;;;;25.00;17.42;;;;;;;11.75;48.39;101111.70;1761351;80;20961;-79
2022/04/14 06:09:25;;;;;;;24.87;16.77;;;;;;;11.88;48.43;101112.86;1762131;80;21051;-79
2022/04/14 06:12:10;;;;;;;26.68;16.17;;;;;;;12.03;48.44;101109.17;1773217;80;21749;-78
2022/04/14 06:14:54;;;;;;;27.48;17.32;;;;;;;12.20;48.46;101108.48;1763867;80;20946;-79
2022/04/14 06:17:39;;;;;;;31.12;16.55;;;;;;;12.39;48.44;101112.97;1777091;80;21077;-78
2022/04/14 06:20:24;;;;;;;30.77;15.88;;;;;;;12.58;48.45;101100.53;1766530;80;22304;-79
2022/04/14 06:23:08;;;;;;;26.65;16.02;;;;;;;12.78;48.47;101096.30;1764521;80;21014;-79
2022/04/14 06:25:54;;;;;;;26.00;16.37;;;;;;;12.94;48.45;101095.16;1766171;79;21048;-79
2022/04/14 06:28:42;;;;;;;23.57;15.80;;;;;;;13.10;48.45;101091.81;1759905;80;21435;-80
2022/04/14 06:31:26;;;;;;;23.67;16.57;;;;;;;13.28;48.46;101095.39;1767489;80;21046;-80
2022/04/14 06:34:11;;;;;;;30.25;18.15;;;;;;;13.48;48.46;101085.91;1772813;80;21093;-80
2022/04/14 06:36:56;;;;;;;25.00;16.10;;;;;;;13.63;48.36;101089.45;1756177;79;21109;-79
2022/04/14 06:39:40;;;;;;;24.92;15.35;;;;;;;13.74;48.36;101084.03;1766479;80;21525;-79
2022/04/14 06:42:25;;;;;;;22.02;15.20;;;;;;;13.90;48.36;101085.41;1755483;80;21036;-79
2022/04/14 06:45:10;;;;;;;24.12;15.53;;;;;;;14.06;48.31;101092.40;1755221;80;21081;-79
2022/04/14 06:47:55;;;;;;;23.30;15.70;;;;;;;14.21;48.25;101094.20;1770970;78;21188;-80
2022/04/14 06:50:40;;;;;;;28.77;16.02;;;;;;;14.32;48.23;101097.86;1703799;82;21066;-80
2022/04/14 06:53:25;;;;;;;24.23;15.85;;;;;;;14.47;48.20;101095.38;1681848;81;523926;-80
2022/04/14 06:56:10;;;;;;;24.15;15.68;;;;;;;14.62;48.15;101101.47;1686612;84;21015;-79
2022/04/14 06:58:55;;;;;;;20.50;14.70;;;;;;;14.83;48.14;101097.03;1684886;85;21092;-80
2022/04/14 07:01:39;;;;;;;20.88;14.45;;;;;;;15.06;48.13;101095.58;1643776;85;21070;-79
2022/04/14 07:04:25;;;;;;;22.37;16.00;;;;;;;15.30;48.12;101099.23;1649191;85;21105;-80
2022/04/14 07:07:10;;;;;;;23.63;16.63;;;;;;;15.58;48.11;101096.30;1645588;85;21107;-79
2022/04/14 07:09:54;;;;;;;23.65;16.10;;;;;;;15.81;48.03;101101.66;1645439;86;21118;-80
2022/04/14 07:12:43;;;;;;;23.12;15.50;;;;;;;16.13;48.07;101092.83;1650158;85;21559;-80
2022/04/14 07:15:28;;;;;;;23.32;15.03;;;;;;;16.43;47.93;101094.92;1636467;87;21509;-80
2022/04/14 07:18:12;;;;;;;24.37;16.52;;;;;;;16.78;48.02;101088.98;1656584;85;21048;-80
2022/04/14 07:20:57;;;;;;;27.85;15.40;;;;;;;17.14;48.08;101090.33;1657387;85;21688;-80
2022/04/14 07:23:43;;;;;;;23.98;16.15;;;;;;;17.58;47.97;101087.83;1657528;86;21033;-81
2022/04/14 07:26:28;;;;;;;27.52;16.60;;;;;;;18.13;47.85;101090.50;1649563;85;21050;-80
2022/04/14 07:29:13;;;;;;;33.67;17.20;;;;;;;18.61;47.36;101090.73;1653389;84;21048;-80
2022/04/14 07:31:57;;;;;;;25.00;16.60;;;;;;;18.90;47.03;101091.25;1649176;86;21029;-79
2022/04/14 07:34:42;;;;;;;28.80;17.15;;;;;;;19.04;46.92;101087.58;1654457;85;21072;-81
2022/04/14 07:37:27;;;;;;;26.35;16.50;;;;;;;19.08;46.80;101093.94;1639740;85;21140;-80
2022/04/14 07:40:12;;;;;;;27.15;16.12;;;;;;;19.15;46.93;101096.68;1636303;86;21966;-81
2022/04/14 07:42:57;;;;;;;28.02;16.87;;;;;;;19.26;46.93;101099.26;1652186;85;21077;-82
2022/04/14 07:45:45;;;;;;;29.93;17.70;;;;;;;19.37;46.89;101099.17;1640488;86;21057;-82
2022/04/14 07:48:30;;;;;;;28.27;18.57;;;;;;;19.46;46.75;101099.23;1648173;84;21556;-82
2022/04/14 07:51:15;;;;;;;26.20;17.92;;;;;;;19.47;46.61;101097.00;1696319;84;21117;-82
2022/04/14 07:53:59;;;;;;;30.17;19.65;;;;;;;19.61;46.63;101098.56;1698225;84;21225;-81
2022/04/14 07:56:44;;;;;;;30.55;18.57;;;;;;;19.83;46.52;101086.59;1697215;82;21046;-81
2022/04/14 07:59:29;;;;;;;32.30;19.27;;;;;;;20.07;46.36;101089.83;1697851;84;21032;-82
2022/04/14 08:02:15;;;;;;;26.80;17.77;;;;;;;20.16;46.10;101089.39;1697322;82;21556;-81
2022/04/14 08:05:00;;;;;;;29.20;17.17;;;;;;;20.22;46.15;101084.31;1697616;82;21087;-81
2022/04/14 08:07:45;;;;;;;31.73;19.90;;;;;;;20.33;46.08;101078.04;1696938;82;21116;-81
2022/04/14 08:10:30;;;;;;;24.52;17.50;;;;;;;20.41;46.04;101074.14;1685358;83;21008;-81
2022/04/14 08:13:17;;;;;;;36.23;19.52;;;;;;;20.51;45.77;101078.95;1691308;82;21040;-82
2022/04/14 08:16:06;;;;;;;26.02;17.70;;;;;;;20.59;45.65;101083.36;1695561;82;21401;-82
2022/04/14 08:18:48;;;;;;;27.10;15.38;;;;;;;20.67;45.50;101085.14;1702013;82;21717;-82
2022/04/14 08:21:33;;;;;;;24.95;15.83;;;;;;;20.72;45.34;101084.44;1694465;82;20961;-81
2022/04/14 08:24:17;;;;;;;24.25;15.93;;;;;;;20.85;45.17;101084.64;1695582;84;20965;-82
2022/04/14 08:27:02;;;;;;;22.67;16.67;;;;;;;21.27;44.80;101080.28;1692564;82;20912;-81
2022/04/14 08:29:46;;;;;;;24.55;15.48;;;;;;;21.66;44.41;101066.27;1688878;82;20977;-82
2022/04/14 08:32:31;;;;;;;25.52;15.55;;;;;;;21.94;44.11;101062.08;1698963;84;20965;-83
2022/04/14 08:35:17;;;;;;;26.87;16.85;;;;;;;22.04;43.84;101069.41;1689932;83;21501;-83
2022/04/14 08:38:06;;;;;;;22.73;15.63;;;;;;;21.99;43.44;101063.98;1701896;82;20997;-82
2022/04/14 08:40:56;;;;;;;24.75;15.32;;;;;;;21.77;43.72;101062.58;1697857;82;21437;-82
2022/04/14 08:44:05;;;;;;;24.27;15.63;;;;;;;21.59;43.67;101064.05;1695348;82;21407;-80
2022/04/14 08:46:51;;;;;;;26.48;15.78;;;;;;;21.50;43.64;101062.77;1695709;84;20951;-81
2022/04/14 08:49:36;;;;;;;26.35;17.17;;;;;;;21.45;43.64;101052.50;1694136;82;21328;-81
2022/04/14 08:52:22;;;;;;;29.63;18.15;;;;;;;21.48;43.50;101044.44;1688299;84;20900;-81
2022/04/14 08:55:11;;;;;;;26.93;15.65;;;;;;;21.40;43.38;101045.78;1686758;83;21438;-81
2022/04/14 08:57:56;;;;;;;27.48;17.12;;;;;;;21.41;43.33;101044.84;1684665;83;20930;-81
2022/04/14 09:00:42;;;;;;;23.92;16.50;;;;;;;21.36;43.14;101040.30;1684216;84;20926;-81
2022/04/14 09:03:28;;;;;;;27.85;16.62;;;;;;;21.29;42.94;101053.43;1685729;84;20969;-81
2022/04/14 09:06:14;;;;;;;31.45;17.35;;;;;;;21.20;42.84;101056.05;1682162;84;20910;-80
2022/04/14 09:09:00;;;;;;;24.23;16.80;;;;;;;21.07;42.73;101068.14;1660751;84;21062;-81
2022/04/14 09:11:45;;;;;;;28.40;15.25;;;;;;;20.96;42.62;101069.17;1686627;84;28649;-82
2022/04/14 09:14:34;;;;;;;27.62;16.48;;;;;;;20.86;42.51;101063.53;1689493;84;20903;-82
2022/04/14 09:17:18;;;;;;;25.37;16.32;;;;;;;20.80;42.35;101073.05;1687653;84;21464;-80
2022/04/14 09:20:31;;;;;;;26.85;16.80;;;;;;;20.66;42.19;101065.89;1683959;84;20959;-81
2022/04/14 09:23:22;;;;;;;27.17;16.35;;;;;;;20.57;42.17;101062.41;1674800;84;20992;-79
2022/04/14 09:26:12;;;;;;;27.17;17.27;;;;;;;20.58;42.18;101064.11;1687544;84;20934;-80
2022/04/14 09:29:10;;;;;;;30.65;18.62;;;;;;;20.61;42.06;101059.17;1684413;84;21072;-80
2022/04/14 09:31:54;;;;;;;30.23;17.62;;;;;;;20.55;41.96;101056.38;1680313;84;21055;-80
2022/04/14 09:34:50;;;;;;;28.70;19.00;;;;;;;20.49;41.88;101057.54;1683065;84;20997;-78
2022/04/14 09:37:34;;;;;;;26.27;16.95;;;;;;;20.42;41.81;101057.45;1681103;84;21017;-78
2022/04/14 09:40:21;;;;;;;29.12;17.85;;;;;;;20.39;41.81;101056.30;1683151;83;21560;-78
2022/04/14 09:43:06;;;;;;;;;;;;;;;20.40;41.62;101055.84;1689152;84;21062;-79
2022/04/14 09:45:51;;;;;;;28.38;17.87;;;;;;;20.36;41.51;101054.25;1684649;84;20234;-79
2022/04/14 09:48:41;;;;;;;31.23;17.62;;;;;;;20.34;41.66;101051.70;1684605;84;21628;-78
2022/04/14 09:51:26;;;;;;;39.25;18.80;;;;;;;20.32;41.61;101051.39;1681346;82;21040;-79
2022/04/14 09:54:20;;;;;;;26.77;17.90;;;;;;;20.32;41.56;101053.55;1674913;84;21063;-79
2022/04/14 09:57:04;;;;;;;29.55;17.50;;;;;;;20.36;41.59;101049.84;1665866;84;21089;-79
2022/04/14 09:59:49;;;;;;;31.90;18.52;;;;;;;20.46;41.61;101052.44;1685855;83;21000;-79
2022/04/14 10:02:35;;;;;;;30.95;18.65;;;;;;;20.55;41.45;101052.91;1685839;84;21478;-78
2022/04/14 10:05:34;;;;;;;;;;;;;;;20.63;41.49;101049.43;1695635;83;21074;-78
2022/04/14 10:08:20;;;;;;;28.32;16.50;;;;;;;20.70;41.42;101045.09;1688016;84;20203;-78
2022/04/14 10:11:09;;;;;;;29.40;18.75;;;;;;;20.74;41.21;101039.22;1687848;83;21087;-79
2022/04/14 10:13:53;;;;;;;29.12;18.62;;;;;;;20.67;41.34;101036.52;1685629;83;21145;-79
2022/04/14 10:16:43;;;;;;;36.33;18.87;;;;;;;20.74;41.38;101036.59;1685515;84;21024;-79
2022/04/14 10:19:28;;;;;;;32.85;18.85;;;;;;;20.83;41.33;101036.09;1688567;83;21098;-78
2022/04/14 10:22:13;;;;;;;30.30;19.20;;;;;;;20.90;41.32;101035.30;1683732;83;21127;-78
2022/04/14 10:24:59;;;;;;;31.55;18.37;;;;;;;20.96;41.24;101034.52;1685828;83;21553;-78
2022/04/14 10:27:44;;;;;;;30.00;18.23;;;;;;;20.92;41.15;101035.61;1682478;83;21100;-78
2022/04/14 10:30:29;;;;;;;30.90;18.70;;;;;;;20.95;41.10;101026.72;1682197;83;21060;-78
2022/04/14 10:33:15;;;;;;;32.83;18.27;;;;;;;20.93;41.10;101032.05;1683817;84;21044;-79
2022/04/14 10:35:59;;;;;;;34.53;19.33;;;;;;;20.92;41.05;101022.47;1658363;84;21091;-79
2022/04/14 10:38:47;;;;;;;33.10;18.73;;;;;;;20.87;41.13;101021.86;1681607;83;21099;-78
2022/04/14 10:41:35;;;;;;;33.63;19.25;;;;;;;20.92;41.12;101021.62;1687177;83;21472;-78
2022/04/14 10:44:22;;;;;;;29.52;17.40;;;;;;;21.01;41.17;101019.82;1686973;83;21071;-78
2022/04/14 10:47:07;;;;;;;34.23;18.12;;;;;;;21.13;41.07;101017.39;1684722;83;21845;-78
2022/04/14 10:49:51;;;;;;;33.95;18.15;;;;;;;21.22;40.92;101019.18;1650297;84;21733;-79
2022/04/14 10:52:36;;;;;;;30.12;16.85;;;;;;;21.19;40.85;101015.37;1669099;83;21092;-79
2022/04/14 10:55:38;;;;;;;29.48;17.65;;;;;;;21.20;40.91;101019.23;1685142;84;21098;-79
2022/04/14 10:58:40;;;;;;;31.15;17.40;;;;;;;21.32;40.82;101012.46;1685372;84;21731;-79
2022/04/14 11:01:50;;;;;;;33.00;18.37;;;;;;;21.37;40.79;101017.01;1686566;84;21569;-76
2022/04/14 11:04:43;;;;;;;30.68;17.82;;;;;;;21.36;40.61;101016.16;1690103;83;21154;-77
2022/04/14 11:07:28;;;;;;;29.48;17.20;;;;;;;21.36;40.59;101021.89;1691368;84;21335;-75
2022/04/14 11:10:13;;;;;;;27.93;17.30;;;;;;;21.45;40.67;101027.50;1691146;84;21074;-76
2022/04/14 11:12:58;;;;;;;26.80;17.42;;;;;;;21.57;40.58;101018.08;1687988;84;21068;-76
2022/04/14 11:15:43;;;;;;;29.12;17.45;;;;;;;21.66;40.56;101018.05;1689374;84;21630;-79
2022/04/14 11:18:29;;;;;;;36.48;18.57;;;;;;;21.76;40.55;101024.49;1689642;84;21371;-79
2022/04/14 11:21:13;;;;;;;29.75;18.25;;;;;;;21.85;40.48;101025.73;1686443;84;21520;-78
2022/04/14 11:24:02;;;;;;;38.30;19.32;;;;;;;21.95;40.49;101029.08;1689199;84;21052;-85
2022/04/14 11:26:52;;;;;;;36.30;19.00;;;;;;;21.98;40.33;101029.38;1689754;83;21101;-80
2022/04/14 11:29:42;;;;;;;32.75;19.40;;;;;;;21.96;40.33;101031.24;1678401;84;312315;-81
2022/04/14 11:32:41;;;;;;;34.78;18.80;;;;;;;21.98;40.20;101022.79;1690834;84;20945;-81
2022/04/14 11:35:31;;;;;;;32.88;19.62;;;;;;;21.85;40.02;101028.36;1686371;84;20911;-81
2022/04/14 11:39:03;;;;;;;33.95;19.10;;;;;;;21.74;40.01;101024.58;1687525;84;20998;-78
2022/04/14 11:41:54;;;;;;;38.85;19.40;;;;;;;21.67;39.99;101026.32;1678415;83;20962;-80
2022/04/14 11:44:39;;;;;;;37.53;19.55;;;;;;;21.48;39.84;101031.28;1687020;83;20982;-83
2022/04/14 11:47:26;;;;;;;31.40;18.87;;;;;;;21.35;39.88;101018.88;1686471;84;20954;-81
2022/04/14 11:50:10;;;;;;;35.65;19.95;;;;;;;21.22;40.00;101009.98;1687872;84;20997;-82
2022/04/14 11:53:01;;;;;;;33.67;20.55;;;;;;;21.25;40.06;101016.39;1693210;83;20902;-81
2022/04/14 11:55:45;;;;;;;38.08;20.52;;;;;;;21.25;40.01;101011.98;1678508;83;20966;-78
2022/04/14 11:58:30;;;;;;;35.58;20.72;;;;;;;21.17;39.91;101014.60;1692438;84;20930;-79
2022/04/14 12:01:14;;;;;;;35.50;20.15;;;;;;;21.02;39.71;101012.31;1675880;84;20910;-80
2022/04/14 12:03:59;;;;;;;34.20;19.00;;;;;;;20.89;39.71;101016.52;1647987;84;20950;-80
2022/04/14 12:06:56;;;;;;;34.10;20.45;;;;;;;20.85;39.87;101021.09;1679997;84;21007;-79
2022/04/14 12:09:42;;;;;;;32.30;19.73;;;;;;;20.82;39.86;101020.78;1691827;83;20957;-85
2022/04/14 12:12:33;;;;;;;35.20;19.45;;;;;;;20.87;40.00;101015.28;1687142;84;20945;-84
2022/04/14 12:15:17;;;;;;;36.77;21.57;;;;;;;20.97;39.92;101015.66;1680940;84;21510;-83
2022/04/14 12:18:08;;;;;;;27.60;17.67;;;;;;;21.01;39.97;101015.41;1680177;84;21407;-83
2022/04/14 12:21:01;;;;;;;37.17;20.23;;;;;;;21.02;39.95;101009.69;1688105;84;21372;-80
2022/04/14 12:24:11;;;;;;;30.45;18.52;;;;;;;21.02;39.88;101011.00;1675212;85;20966;-81
2022/04/14 12:26:58;;;;;;;33.90;19.23;;;;;;;20.96;39.85;101012.64;1670477;84;21324;-82
2022/04/14 12:29:42;;;;;;;28.38;18.02;;;;;;;20.94;39.89;101007.46;1692980;82;21100;-81
2022/04/14 12:32:29;;;;;;;26.35;16.30;;;;;;;20.95;39.93;100998.64;1677788;83;21513;-81
2022/04/14 12:35:37;;;;;;;31.00;17.80;;;;;;;21.01;39.95;101007.52;1690968;84;21589;-82
2022/04/14 12:38:28;;;;;;;28.35;16.07;;;;;;;21.12;39.92;101010.44;1691401;84;21538;-81
2022/04/14 12:41:22;;;;;;;25.17;14.63;;;;;;;21.18;39.85;101007.09;1690539;83;21466;-82
2022/04/14 12:44:06;;;;;;;29.80;16.62;;;;;;;21.25;39.93;101001.45;1675343;84;21057;-82